createdAt,value
2023-03-27T00:01:36.696Z,5.23
2023-03-27T00:06:38.192Z,5.04
2023-03-27T00:11:39.766Z,4.98
2023-03-27T00:16:41.716Z,4.90
2023-03-27T00:21:43.359Z,4.76
2023-03-27T00:26:44.937Z,4.77
2023-03-27T00:31:46.457Z,4.72
2023-03-27T00:36:47.989Z,4.56
2023-03-27T00:41:49.864Z,4.49
2023-03-27T00:46:53.132Z,4.50
2023-03-27T00:51:55.263Z,4.54
2023-03-27T00:57:01.273Z,4.48
2023-03-27T01:02:03.979Z,4.34
2023-03-27T01:07:07.177Z,4.30
2023-03-27T01:12:08.642Z,4.41
2023-03-27T01:17:38.172Z,4.31
2023-03-27T01:23:00.889Z,4.30
2023-03-27T01:28:24.489Z,4.14
2023-03-27T01:34:00.811Z,3.99
2023-03-27T01:39:40.926Z,3.97
2023-03-27T01:45:04.862Z,3.92
2023-03-27T01:50:08.871Z,3.93
2023-03-27T01:55:15.707Z,3.95
2023-03-27T02:00:22.206Z,3.89
2023-03-27T02:05:38.569Z,3.90
2023-03-27T02:10:47.332Z,3.96
2023-03-27T02:15:50.697Z,3.85
2023-03-27T02:20:52.954Z,3.87
2023-03-27T02:25:54.503Z,3.88
2023-03-27T02:31:06.566Z,3.84
2023-03-27T02:36:47.137Z,3.71
2023-03-27T02:41:57.151Z,3.69
2023-03-27T02:47:18.135Z,3.59
2023-03-27T02:52:37.565Z,3.60
2023-03-27T02:57:39.214Z,3.57
2023-03-27T03:03:03.192Z,3.49
2023-03-27T03:08:06.068Z,3.55
2023-03-27T03:13:07.825Z,3.54
2023-03-27T03:18:09.334Z,3.67
2023-03-27T03:23:11.530Z,3.54
2023-03-27T03:28:13.762Z,3.41
2023-03-27T03:33:15.268Z,3.32
2023-03-27T03:38:17.684Z,3.37
2023-03-27T03:43:22.562Z,3.31
2023-03-27T03:48:24.166Z,3.39
2023-03-27T03:53:25.862Z,3.23
2023-03-27T03:58:34.460Z,3.20
2023-03-27T04:03:39.493Z,3.09
2023-03-27T04:08:44.505Z,3.12
2023-03-27T04:14:04.621Z,3.07
2023-03-27T04:19:12.376Z,3.11
2023-03-27T04:24:16.491Z,3.15
2023-03-27T04:29:21.222Z,3.18
2023-03-27T04:34:47.044Z,3.18
2023-03-27T04:39:57.569Z,3.07
2023-03-27T04:44:59.205Z,2.98
2023-03-27T04:50:00.786Z,2.74
2023-03-27T04:55:04.622Z,2.62
2023-03-27T05:00:07.488Z,2.63
2023-03-27T05:05:34.735Z,2.96
2023-03-27T05:10:39.261Z,2.93
2023-03-27T05:15:40.964Z,2.88
2023-03-27T05:20:46.457Z,2.71
2023-03-27T05:26:00.152Z,2.48
2023-03-27T05:31:14.469Z,2.57
2023-03-27T05:36:29.131Z,2.80
2023-03-27T05:41:32.128Z,2.95
2023-03-27T05:46:33.860Z,3.05
2023-03-27T05:51:49.874Z,3.26
2023-03-27T05:56:55.047Z,3.57
2023-03-27T06:01:57.075Z,4.27
2023-03-27T06:07:01.810Z,5.14
2023-03-27T06:12:05.420Z,5.22
2023-03-27T06:17:12.365Z,5.85
2023-03-27T06:22:23.122Z,6.34
2023-03-27T06:27:24.844Z,6.91
2023-03-27T06:32:27.587Z,6.18
2023-03-27T06:37:30.989Z,6.31
2023-03-27T06:42:33.335Z,5.86
2023-03-27T06:48:16.955Z,5.66
2023-03-27T06:53:27.258Z,6.00
2023-03-27T06:58:29.839Z,6.38
2023-03-27T07:03:31.445Z,6.79
2023-03-27T07:08:32.948Z,6.36
2023-03-27T07:13:34.851Z,6.18
2023-03-27T07:18:40.395Z,7.02
2023-03-27T07:23:41.963Z,7.69
2023-03-27T07:28:46.718Z,8.03
2023-03-27T07:33:48.914Z,8.51
2023-03-27T07:38:51.154Z,8.22
2023-03-27T07:44:00.903Z,8.44
2023-03-27T07:49:13.573Z,8.16
2023-03-27T07:54:15.872Z,7.50
2023-03-27T07:59:22.937Z,9.29
2023-03-27T08:04:25.336Z,10.43
2023-03-27T08:09:39.973Z,9.92
2023-03-27T08:14:42.839Z,10.84
2023-03-27T08:19:53.824Z,10.52
2023-03-27T08:24:55.681Z,10.45
2023-03-27T08:30:00.873Z,9.76
2023-03-27T08:35:03.134Z,12.20
2023-03-27T08:40:05.358Z,9.54
2023-03-27T08:45:48.591Z,9.95
2023-03-27T08:50:59.071Z,9.88
2023-03-27T08:56:00.887Z,9.18
2023-03-27T09:01:26.776Z,9.40
2023-03-27T09:06:55.819Z,9.68
2023-03-27T09:12:09.669Z,8.97
2023-03-27T09:17:31.934Z,8.90
2023-03-27T09:22:44.857Z,7.69
2023-03-27T09:27:52.357Z,6.40
2023-03-27T09:33:11.354Z,6.44
2023-03-27T09:38:31.728Z,8.33
2023-03-27T09:44:02.940Z,9.34
2023-03-27T09:49:13.333Z,10.64
2023-03-27T09:54:23.659Z,10.16
2023-03-27T09:59:54.511Z,10.48
2023-03-27T10:05:06.977Z,12.04
2023-03-27T10:10:29.364Z,13.21
2023-03-27T10:15:41.059Z,13.64
2023-03-27T10:20:51.653Z,11.42
2023-03-27T10:26:00.801Z,10.07
2023-03-27T10:31:26.716Z,12.47
2023-03-27T10:36:36.025Z,13.00
2023-03-27T10:41:47.798Z,10.76
2023-03-27T10:46:50.052Z,11.25
2023-03-27T10:51:57.484Z,12.81
2023-03-27T10:57:23.505Z,10.00
2023-03-27T11:02:46.399Z,8.87
2023-03-27T11:07:58.364Z,10.74
2023-03-27T11:13:11.103Z,11.92
2023-03-27T11:18:28.291Z,13.28
2023-03-27T11:24:15.915Z,13.32
2023-03-27T11:29:32.373Z,12.18
2023-03-27T11:34:37.804Z,12.80
2023-03-27T11:40:09.065Z,11.35
2023-03-27T11:45:16.812Z,11.47
2023-03-27T11:50:22.444Z,11.83
2023-03-27T11:55:56.256Z,10.62
2023-03-27T12:01:18.089Z,11.96
2023-03-27T12:06:29.868Z,13.63
2023-03-27T12:11:37.554Z,12.23
2023-03-27T12:16:53.743Z,9.58
2023-03-27T12:22:31.167Z,7.17
2023-03-27T12:27:44.172Z,5.75
2023-03-27T12:33:59.689Z,6.75
2023-03-27T12:39:01.734Z,9.14
2023-03-27T12:44:05.298Z,9.56
2023-03-27T12:49:16.754Z,9.03
2023-03-27T12:54:37.972Z,9.97
2023-03-27T13:00:01.562Z,10.42
2023-03-27T13:05:39.565Z,11.28
2023-03-27T13:10:57.874Z,11.98
2023-03-27T13:16:04.838Z,12.16
2023-03-27T13:21:50.560Z,11.09
2023-03-27T13:27:27.357Z,10.25
2023-03-27T13:32:41.313Z,10.99
2023-03-27T13:37:55.833Z,11.72
2023-03-27T13:43:24.636Z,11.27
2023-03-27T13:48:36.359Z,10.21
2023-03-27T13:53:59.668Z,9.04
2023-03-27T13:59:35.489Z,8.80
2023-03-27T14:04:45.245Z,8.93
2023-03-27T14:09:53.601Z,9.37
2023-03-27T14:15:41.793Z,9.07
2023-03-27T14:21:03.302Z,9.69
2023-03-27T14:26:18.661Z,10.16
2023-03-27T14:31:23.784Z,9.27
2023-03-27T14:36:39.169Z,8.23
2023-03-27T14:41:52.919Z,8.09
2023-03-27T14:47:06.090Z,8.18
2023-03-27T14:52:08.930Z,8.24
2023-03-27T14:57:29.419Z,8.35
2023-03-27T15:02:35.253Z,8.51
2023-03-27T15:07:40.725Z,8.48
2023-03-27T15:12:51.266Z,7.99
2023-03-27T15:17:54.852Z,9.86
2023-03-27T15:23:11.802Z,10.63
2023-03-27T15:28:41.734Z,10.67
2023-03-27T15:33:52.676Z,9.73
2023-03-27T15:38:58.324Z,10.87
2023-03-27T15:44:05.461Z,8.67
2023-03-27T15:49:35.447Z,7.32
2023-03-27T15:54:53.370Z,7.67
2023-03-27T15:59:59.902Z,7.49
2023-03-27T16:05:01.569Z,7.06
2023-03-27T16:10:06.261Z,6.95
2023-03-27T16:15:30.597Z,6.88
2023-03-27T16:20:34.870Z,7.62
2023-03-27T16:25:37.107Z,8.20
2023-03-27T16:30:39.429Z,9.21
2023-03-27T16:35:41.078Z,9.41
2023-03-27T16:40:43.534Z,9.35
2023-03-27T16:45:45.278Z,8.87
2023-03-27T16:50:46.994Z,9.00
2023-03-27T16:55:48.489Z,8.94
2023-03-27T17:00:50.229Z,8.38
2023-03-27T17:05:51.806Z,8.39
2023-03-27T17:10:53.342Z,7.83
2023-03-27T17:15:55.102Z,7.63
2023-03-27T17:20:56.736Z,7.40
2023-03-27T17:26:03.015Z,7.35
2023-03-27T17:31:05.664Z,7.20
2023-03-27T17:36:13.165Z,7.18
2023-03-27T17:41:15.471Z,7.05
2023-03-27T17:46:17.019Z,6.94
2023-03-27T17:51:18.581Z,6.92
2023-03-27T17:56:20.165Z,6.83
2023-03-27T18:01:23.069Z,6.68
2023-03-27T18:06:24.593Z,6.70
2023-03-27T18:11:26.111Z,6.56
2023-03-27T18:16:27.804Z,6.40
2023-03-27T18:21:29.337Z,6.32
2023-03-27T18:26:30.856Z,6.26
2023-03-27T18:31:32.748Z,6.08
2023-03-27T18:36:34.368Z,6.15
2023-03-27T18:41:35.895Z,6.24
2023-03-27T18:46:37.481Z,6.06
2023-03-27T18:51:39.008Z,5.99
2023-03-27T18:56:40.717Z,5.82
2023-03-27T19:01:42.245Z,5.80
2023-03-27T19:06:43.907Z,5.74
2023-03-27T19:11:45.437Z,5.65
2023-03-27T19:17:05.665Z,5.61
2023-03-27T19:22:13.418Z,5.62
2023-03-27T19:27:23.517Z,5.50
2023-03-27T19:32:26.211Z,5.35
2023-03-27T19:37:27.701Z,5.31
2023-03-27T19:42:29.294Z,5.25
2023-03-27T19:47:31.393Z,5.27
2023-03-27T19:52:33.258Z,4.97
2023-03-27T19:57:34.754Z,4.75
2023-03-27T20:02:36.316Z,4.73
2023-03-27T20:07:38.944Z,4.72
2023-03-27T20:12:43.741Z,4.65
2023-03-27T20:17:45.304Z,4.30
2023-03-27T20:22:57.221Z,4.41
2023-03-27T20:28:00.540Z,4.49
2023-03-27T20:33:02.511Z,4.60
2023-03-27T20:38:35.398Z,4.68
2023-03-27T20:43:37.708Z,4.56
2023-03-27T20:48:39.325Z,4.48
2023-03-27T20:53:42.609Z,4.64
2023-03-27T20:58:44.186Z,4.61
2023-03-27T21:03:46.284Z,4.56
2023-03-27T21:08:47.867Z,4.43
2023-03-27T21:13:49.424Z,4.66
2023-03-27T21:18:50.922Z,4.53
2023-03-27T21:23:52.486Z,4.45
2023-03-27T21:28:54.011Z,4.35
2023-03-27T21:33:55.580Z,4.23
2023-03-27T21:38:57.664Z,4.16
2023-03-27T21:43:59.204Z,4.36
2023-03-27T21:49:00.736Z,4.34
2023-03-27T21:54:02.621Z,4.31
2023-03-27T21:59:04.141Z,4.19
2023-03-27T22:04:05.757Z,4.19
2023-03-27T22:09:07.482Z,4.14
2023-03-27T22:14:09.258Z,3.94
2023-03-27T22:19:11.040Z,3.86
2023-03-27T22:24:12.732Z,3.89
2023-03-27T22:29:14.490Z,3.78
2023-03-27T22:34:15.977Z,3.63
2023-03-27T22:39:17.459Z,3.62
2023-03-27T22:44:19.158Z,3.50
2023-03-27T22:49:20.752Z,3.53
2023-03-27T22:54:22.272Z,3.43
2023-03-27T22:59:23.768Z,3.38
2023-03-27T23:04:25.339Z,3.30
2023-03-27T23:09:26.859Z,3.04
2023-03-27T23:14:28.346Z,3.14
2023-03-27T23:19:29.838Z,3.11
2023-03-27T23:24:31.408Z,3.02
2023-03-27T23:29:32.897Z,2.93
2023-03-27T23:34:34.494Z,2.84
2023-03-27T23:39:35.958Z,2.86
2023-03-27T23:44:37.442Z,2.80
2023-03-27T23:49:38.929Z,2.68
2023-03-27T23:54:40.460Z,2.43
2023-03-27T23:59:41.972Z,2.46
